sensor_id;sensor_type;location;lat;lon;timestamp;P1;durP1;ratioP1;P2;durP2;ratioP2
2053;SDS011;1032;52.542;13.440;2022-11-15T00:01:07;42.70;;;34.33;;
2053;SDS011;1032;52.542;13.440;2022-11-15T00:03:52;43.90;;;33.37;;
2053;SDS011;1032;52.542;13.440;2022-11-15T00:06:38;55.83;;;39.30;;
2053;SDS011;1032;52.542;13.440;2022-11-15T00:09:23;47.83;;;36.10;;
2053;SDS011;1032;52.542;13.440;2022-11-15T00:12:08;48.03;;;36.63;;
2053;SDS011;1032;52.542;13.440;2022-11-15T00:14:53;49.03;;;36.40;;
2053;SDS011;1032;52.542;13.440;2022-11-15T00:17:40;53.93;;;38.23;;
2053;SDS011;1032;52.542;13.440;2022-11-15T00:20:26;51.20;;;35.73;;
2053;SDS011;1032;52.542;13.440;2022-11-15T00:23:11;50.53;;;36.40;;
2053;SDS011;1032;52.542;13.440;2022-11-15T00:25:56;48.13;;;34.83;;
2053;SDS011;1032;52.542;13.440;2022-11-15T00:28:42;48.43;;;36.77;;
2053;SDS011;1032;52.542;13.440;2022-11-15T00:31:28;52.70;;;36.90;;
2053;SDS011;1032;52.542;13.440;2022-11-15T00:34:15;46.87;;;36.23;;
2053;SDS011;1032;52.542;13.440;2022-11-15T00:37:00;53.43;;;36.70;;
2053;SDS011;1032;52.542;13.440;2022-11-15T00:39:46;55.70;;;38.00;;
2053;SDS011;1032;52.542;13.440;2022-11-15T00:42:31;46.53;;;35.03;;
2053;SDS011;1032;52.542;13.440;2022-11-15T00:45:16;47.90;;;36.10;;
2053;SDS011;1032;52.542;13.440;2022-11-15T00:48:02;47.20;;;35.33;;
2053;SDS011;1032;52.542;13.440;2022-11-15T00:50:49;53.43;;;37.33;;
2053;SDS011;1032;52.542;13.440;2022-11-15T00:53:35;45.20;;;35.37;;
2053;SDS011;1032;52.542;13.440;2022-11-15T00:56:20;46.13;;;35.70;;
2053;SDS011;1032;52.542;13.440;2022-11-15T00:59:05;52.43;;;36.03;;
2053;SDS011;1032;52.542;13.440;2022-11-15T01:01:50;48.60;;;36.60;;
2053;SDS011;1032;52.542;13.440;2022-11-15T01:04:35;47.60;;;36.90;;
2053;SDS011;1032;52.542;13.440;2022-11-15T01:07:22;49.73;;;34.73;;
2053;SDS011;1032;52.542;13.440;2022-11-15T01:10:07;50.80;;;36.83;;
2053;SDS011;1032;52.542;13.440;2022-11-15T01:12:53;46.60;;;34.93;;
2053;SDS011;1032;52.542;13.440;2022-11-15T01:15:39;52.17;;;36.47;;
2053;SDS011;1032;52.542;13.440;2022-11-15T01:18:25;47.93;;;35.80;;
2053;SDS011;1032;52.542;13.440;2022-11-15T01:21:11;51.20;;;36.17;;
2053;SDS011;1032;52.542;13.440;2022-11-15T01:23:59;50.70;;;37.53;;
2053;SDS011;1032;52.542;13.440;2022-11-15T01:26:44;48.43;;;35.47;;
2053;SDS011;1032;52.542;13.440;2022-11-15T01:29:30;55.67;;;38.20;;
2053;SDS011;1032;52.542;13.440;2022-11-15T01:32:14;53.87;;;35.60;;
2053;SDS011;1032;52.542;13.440;2022-11-15T01:35:00;48.50;;;35.23;;
2053;SDS011;1032;52.542;13.440;2022-11-15T01:37:45;49.90;;;37.50;;
2053;SDS011;1032;52.542;13.440;2022-11-15T01:40:31;46.63;;;34.87;;
2053;SDS011;1032;52.542;13.440;2022-11-15T01:43:20;52.60;;;36.67;;
2053;SDS011;1032;52.542;13.440;2022-11-15T01:46:11;53.30;;;37.27;;
2053;SDS011;1032;52.542;13.440;2022-11-15T01:49:16;51.40;;;36.97;;
2053;SDS011;1032;52.542;13.440;2022-11-15T01:52:04;48.93;;;36.27;;
2053;SDS011;1032;52.542;13.440;2022-11-15T01:54:54;45.67;;;35.97;;
2053;SDS011;1032;52.542;13.440;2022-11-15T01:57:50;52.33;;;38.10;;
2053;SDS011;1032;52.542;13.440;2022-11-15T02:00:38;49.73;;;35.30;;
2053;SDS011;1032;52.542;13.440;2022-11-15T02:03:26;53.00;;;38.23;;
2053;SDS011;1032;52.542;13.440;2022-11-15T02:06:17;49.40;;;35.80;;
2053;SDS011;1032;52.542;13.440;2022-11-15T02:09:03;50.10;;;36.47;;
2053;SDS011;1032;52.542;13.440;2022-11-15T02:11:48;53.53;;;37.13;;
2053;SDS011;1032;52.542;13.440;2022-11-15T02:14:38;51.23;;;36.63;;
2053;SDS011;1032;52.542;13.440;2022-11-15T02:17:31;57.10;;;36.33;;
2053;SDS011;1032;52.542;13.440;2022-11-15T02:20:36;51.83;;;37.20;;
2053;SDS011;1032;52.542;13.440;2022-11-15T02:23:31;55.97;;;37.17;;
2053;SDS011;1032;52.542;13.440;2022-11-15T02:33:09;48.13;;;34.43;;
2053;SDS011;1032;52.542;13.440;2022-11-15T02:36:05;56.30;;;38.03;;
2053;SDS011;1032;52.542;13.440;2022-11-15T02:38:57;49.87;;;36.80;;
2053;SDS011;1032;52.542;13.440;2022-11-15T02:41:46;53.20;;;38.17;;
2053;SDS011;1032;52.542;13.440;2022-11-15T02:44:37;54.60;;;38.40;;
2053;SDS011;1032;52.542;13.440;2022-11-15T02:47:28;49.90;;;36.67;;
2053;SDS011;1032;52.542;13.440;2022-11-15T02:50:20;47.03;;;35.80;;
2053;SDS011;1032;52.542;13.440;2022-11-15T02:53:09;49.67;;;36.30;;
2053;SDS011;1032;52.542;13.440;2022-11-15T02:55:55;48.63;;;36.13;;
2053;SDS011;1032;52.542;13.440;2022-11-15T02:58:46;50.17;;;36.57;;
2053;SDS011;1032;52.542;13.440;2022-11-15T03:01:42;50.17;;;36.77;;
2053;SDS011;1032;52.542;13.440;2022-11-15T03:04:37;53.60;;;34.67;;
2053;SDS011;1032;52.542;13.440;2022-11-15T03:07:30;52.40;;;35.80;;
2053;SDS011;1032;52.542;13.440;2022-11-15T03:10:22;50.60;;;36.20;;
2053;SDS011;1032;52.542;13.440;2022-11-15T03:13:14;53.03;;;35.30;;
2053;SDS011;1032;52.542;13.440;2022-11-15T03:16:06;48.27;;;34.47;;
2053;SDS011;1032;52.542;13.440;2022-11-15T03:18:59;54.20;;;37.60;;
2053;SDS011;1032;52.542;13.440;2022-11-15T03:21:49;56.90;;;39.27;;
2053;SDS011;1032;52.542;13.440;2022-11-15T03:24:38;48.30;;;35.07;;
2053;SDS011;1032;52.542;13.440;2022-11-15T03:27:26;51.83;;;36.10;;
2053;SDS011;1032;52.542;13.440;2022-11-15T03:30:15;50.57;;;34.90;;
2053;SDS011;1032;52.542;13.440;2022-11-15T03:33:01;49.10;;;36.00;;
2053;SDS011;1032;52.542;13.440;2022-11-15T03:35:48;45.53;;;33.73;;
2053;SDS011;1032;52.542;13.440;2022-11-15T03:38:34;50.83;;;36.40;;
2053;SDS011;1032;52.542;13.440;2022-11-15T03:41:22;52.93;;;36.30;;
2053;SDS011;1032;52.542;13.440;2022-11-15T03:44:11;50.50;;;34.50;;
2053;SDS011;1032;52.542;13.440;2022-11-15T03:47:06;52.80;;;35.10;;
2053;SDS011;1032;52.542;13.440;2022-11-15T03:49:55;49.50;;;35.87;;
2053;SDS011;1032;52.542;13.440;2022-11-15T03:52:45;51.70;;;36.03;;
2053;SDS011;1032;52.542;13.440;2022-11-15T03:55:31;53.70;;;37.20;;
2053;SDS011;1032;52.542;13.440;2022-11-15T03:58:19;49.83;;;37.10;;
2053;SDS011;1032;52.542;13.440;2022-11-15T04:01:04;49.27;;;35.47;;
2053;SDS011;1032;52.542;13.440;2022-11-15T04:03:50;49.63;;;36.07;;
2053;SDS011;1032;52.542;13.440;2022-11-15T04:06:35;55.20;;;39.03;;
2053;SDS011;1032;52.542;13.440;2022-11-15T04:09:21;52.73;;;38.40;;
2053;SDS011;1032;52.542;13.440;2022-11-15T04:12:06;55.90;;;38.80;;
2053;SDS011;1032;52.542;13.440;2022-11-15T04:14:53;56.13;;;40.23;;
2053;SDS011;1032;52.542;13.440;2022-11-15T04:17:52;56.37;;;41.30;;
2053;SDS011;1032;52.542;13.440;2022-11-15T04:20:38;53.53;;;39.57;;
2053;SDS011;1032;52.542;13.440;2022-11-15T04:23:41;52.50;;;37.53;;
2053;SDS011;1032;52.542;13.440;2022-11-15T04:26:44;54.17;;;36.50;;
2053;SDS011;1032;52.542;13.440;2022-11-15T04:29:29;52.77;;;37.60;;
2053;SDS011;1032;52.542;13.440;2022-11-15T04:32:22;59.40;;;38.27;;
2053;SDS011;1032;52.542;13.440;2022-11-15T04:35:07;52.30;;;36.60;;
2053;SDS011;1032;52.542;13.440;2022-11-15T04:37:53;53.10;;;37.03;;
2053;SDS011;1032;52.542;13.440;2022-11-15T04:40:38;52.80;;;35.07;;
2053;SDS011;1032;52.542;13.440;2022-11-15T04:43:24;48.80;;;34.30;;
2053;SDS011;1032;52.542;13.440;2022-11-15T04:46:10;53.60;;;36.90;;
2053;SDS011;1032;52.542;13.440;2022-11-15T04:48:56;44.27;;;34.20;;
2053;SDS011;1032;52.542;13.440;2022-11-15T04:51:41;51.43;;;35.87;;
2053;SDS011;1032;52.542;13.440;2022-11-15T04:54:26;50.47;;;35.50;;
2053;SDS011;1032;52.542;13.440;2022-11-15T04:57:12;48.00;;;34.80;;
2053;SDS011;1032;52.542;13.440;2022-11-15T04:59:57;51.13;;;36.83;;
2053;SDS011;1032;52.542;13.440;2022-11-15T05:02:42;50.20;;;35.40;;
2053;SDS011;1032;52.542;13.440;2022-11-15T05:05:47;51.50;;;34.30;;
2053;SDS011;1032;52.542;13.440;2022-11-15T05:08:32;51.03;;;34.90;;
2053;SDS011;1032;52.542;13.440;2022-11-15T05:11:18;52.90;;;34.50;;
2053;SDS011;1032;52.542;13.440;2022-11-15T05:14:04;52.03;;;35.80;;
2053;SDS011;1032;52.542;13.440;2022-11-15T05:16:49;52.77;;;36.80;;
2053;SDS011;1032;52.542;13.440;2022-11-15T05:19:34;51.50;;;36.20;;
2053;SDS011;1032;52.542;13.440;2022-11-15T05:22:22;50.30;;;37.23;;
2053;SDS011;1032;52.542;13.440;2022-11-15T05:25:07;49.00;;;35.37;;
2053;SDS011;1032;52.542;13.440;2022-11-15T05:27:53;51.47;;;35.83;;
2053;SDS011;1032;52.542;13.440;2022-11-15T05:30:38;50.47;;;35.03;;
2053;SDS011;1032;52.542;13.440;2022-11-15T05:33:24;46.60;;;34.97;;
2053;SDS011;1032;52.542;13.440;2022-11-15T05:36:10;54.57;;;36.87;;
2053;SDS011;1032;52.542;13.440;2022-11-15T05:39:00;50.03;;;36.10;;
2053;SDS011;1032;52.542;13.440;2022-11-15T05:41:48;50.30;;;35.20;;
2053;SDS011;1032;52.542;13.440;2022-11-15T05:44:37;51.13;;;36.60;;
2053;SDS011;1032;52.542;13.440;2022-11-15T05:47:26;57.83;;;38.43;;
2053;SDS011;1032;52.542;13.440;2022-11-15T05:50:14;47.60;;;35.70;;
2053;SDS011;1032;52.542;13.440;2022-11-15T05:53:01;49.60;;;36.93;;
2053;SDS011;1032;52.542;13.440;2022-11-15T05:55:48;47.37;;;34.93;;
2053;SDS011;1032;52.542;13.440;2022-11-15T05:58:34;49.73;;;36.57;;
2053;SDS011;1032;52.542;13.440;2022-11-15T06:01:20;51.57;;;37.10;;
2053;SDS011;1032;52.542;13.440;2022-11-15T06:04:06;52.93;;;36.27;;
2053;SDS011;1032;52.542;13.440;2022-11-15T06:06:51;47.67;;;35.50;;
2053;SDS011;1032;52.542;13.440;2022-11-15T06:09:36;52.53;;;35.70;;
2053;SDS011;1032;52.542;13.440;2022-11-15T06:12:23;49.70;;;35.17;;
2053;SDS011;1032;52.542;13.440;2022-11-15T06:15:09;50.83;;;35.87;;
2053;SDS011;1032;52.542;13.440;2022-11-15T06:17:55;50.80;;;35.57;;
2053;SDS011;1032;52.542;13.440;2022-11-15T06:20:41;46.30;;;35.47;;
2053;SDS011;1032;52.542;13.440;2022-11-15T06:23:27;51.00;;;38.90;;
2053;SDS011;1032;52.542;13.440;2022-11-15T06:26:15;46.53;;;35.00;;
2053;SDS011;1032;52.542;13.440;2022-11-15T06:29:03;50.30;;;35.87;;
2053;SDS011;1032;52.542;13.440;2022-11-15T06:31:49;51.47;;;34.60;;
2053;SDS011;1032;52.542;13.440;2022-11-15T06:34:33;60.50;;;39.10;;
2053;SDS011;1032;52.542;13.440;2022-11-15T06:37:19;53.40;;;37.57;;
2053;SDS011;1032;52.542;13.440;2022-11-15T06:40:04;52.37;;;39.17;;
2053;SDS011;1032;52.542;13.440;2022-11-15T06:42:51;51.80;;;38.60;;
2053;SDS011;1032;52.542;13.440;2022-11-15T06:45:44;56.27;;;40.17;;
2053;SDS011;1032;52.542;13.440;2022-11-15T06:48:29;52.10;;;37.23;;
2053;SDS011;1032;52.542;13.440;2022-11-15T06:51:15;52.53;;;39.40;;
2053;SDS011;1032;52.542;13.440;2022-11-15T06:54:01;53.77;;;39.10;;
2053;SDS011;1032;52.542;13.440;2022-11-15T06:56:46;52.07;;;37.83;;
2053;SDS011;1032;52.542;13.440;2022-11-15T06:59:32;63.60;;;40.57;;
2053;SDS011;1032;52.542;13.440;2022-11-15T07:02:18;50.60;;;38.80;;
2053;SDS011;1032;52.542;13.440;2022-11-15T07:05:04;54.43;;;38.37;;
2053;SDS011;1032;52.542;13.440;2022-11-15T07:07:51;54.47;;;38.00;;
2053;SDS011;1032;52.542;13.440;2022-11-15T07:10:37;54.70;;;38.00;;
2053;SDS011;1032;52.542;13.440;2022-11-15T07:13:24;52.23;;;38.93;;
2053;SDS011;1032;52.542;13.440;2022-11-15T07:16:09;53.87;;;38.23;;
2053;SDS011;1032;52.542;13.440;2022-11-15T07:18:56;49.00;;;36.20;;
2053;SDS011;1032;52.542;13.440;2022-11-15T07:21:42;45.50;;;36.67;;
2053;SDS011;1032;52.542;13.440;2022-11-15T07:24:27;46.23;;;36.40;;
2053;SDS011;1032;52.542;13.440;2022-11-15T07:27:13;46.70;;;34.33;;
2053;SDS011;1032;52.542;13.440;2022-11-15T07:29:58;49.47;;;37.27;;
2053;SDS011;1032;52.542;13.440;2022-11-15T07:32:44;46.07;;;35.50;;
2053;SDS011;1032;52.542;13.440;2022-11-15T07:35:31;44.40;;;32.77;;
2053;SDS011;1032;52.542;13.440;2022-11-15T07:38:17;45.73;;;34.47;;
2053;SDS011;1032;52.542;13.440;2022-11-15T07:41:04;43.27;;;33.30;;
2053;SDS011;1032;52.542;13.440;2022-11-15T07:43:50;44.87;;;32.27;;
2053;SDS011;1032;52.542;13.440;2022-11-15T07:46:36;48.90;;;35.97;;
2053;SDS011;1032;52.542;13.440;2022-11-15T07:49:21;50.30;;;34.17;;
2053;SDS011;1032;52.542;13.440;2022-11-15T07:52:08;45.87;;;32.33;;
2053;SDS011;1032;52.542;13.440;2022-11-15T07:54:53;47.60;;;34.00;;
2053;SDS011;1032;52.542;13.440;2022-11-15T07:57:39;48.60;;;35.83;;
2053;SDS011;1032;52.542;13.440;2022-11-15T08:00:24;41.63;;;31.67;;
2053;SDS011;1032;52.542;13.440;2022-11-15T08:03:11;44.57;;;33.83;;
2053;SDS011;1032;52.542;13.440;2022-11-15T08:05:57;43.00;;;32.60;;
2053;SDS011;1032;52.542;13.440;2022-11-15T08:08:44;43.90;;;32.03;;
2053;SDS011;1032;52.542;13.440;2022-11-15T08:11:30;44.37;;;31.90;;
2053;SDS011;1032;52.542;13.440;2022-11-15T08:14:16;45.90;;;31.63;;
2053;SDS011;1032;52.542;13.440;2022-11-15T08:17:01;46.50;;;33.17;;
2053;SDS011;1032;52.542;13.440;2022-11-15T08:19:46;41.77;;;32.57;;
2053;SDS011;1032;52.542;13.440;2022-11-15T08:22:33;41.80;;;31.30;;
2053;SDS011;1032;52.542;13.440;2022-11-15T08:25:19;44.77;;;31.30;;
2053;SDS011;1032;52.542;13.440;2022-11-15T08:28:05;41.83;;;31.50;;
2053;SDS011;1032;52.542;13.440;2022-11-15T08:30:51;43.00;;;32.63;;
2053;SDS011;1032;52.542;13.440;2022-11-15T08:33:36;42.30;;;32.50;;
2053;SDS011;1032;52.542;13.440;2022-11-15T08:36:21;48.87;;;31.77;;
2053;SDS011;1032;52.542;13.440;2022-11-15T08:39:09;58.73;;;37.50;;
2053;SDS011;1032;52.542;13.440;2022-11-15T08:41:56;44.40;;;33.77;;
2053;SDS011;1032;52.542;13.440;2022-11-15T08:44:41;41.20;;;30.93;;
2053;SDS011;1032;52.542;13.440;2022-11-15T08:47:27;48.60;;;36.03;;
2053;SDS011;1032;52.542;13.440;2022-11-15T08:50:12;38.50;;;31.03;;
2053;SDS011;1032;52.542;13.440;2022-11-15T08:52:57;43.43;;;31.50;;
2053;SDS011;1032;52.542;13.440;2022-11-15T08:55:48;37.73;;;29.53;;
2053;SDS011;1032;52.542;13.440;2022-11-15T08:58:35;39.97;;;31.20;;
2053;SDS011;1032;52.542;13.440;2022-11-15T09:01:21;38.50;;;29.97;;
2053;SDS011;1032;52.542;13.440;2022-11-15T09:04:06;40.20;;;31.80;;
2053;SDS011;1032;52.542;13.440;2022-11-15T09:06:52;41.17;;;31.70;;
2053;SDS011;1032;52.542;13.440;2022-11-15T09:09:37;46.50;;;32.90;;
2053;SDS011;1032;52.542;13.440;2022-11-15T09:12:22;36.93;;;26.93;;
2053;SDS011;1032;52.542;13.440;2022-11-15T09:15:10;36.57;;;31.40;;
2053;SDS011;1032;52.542;13.440;2022-11-15T09:17:57;36.77;;;30.67;;
2053;SDS011;1032;52.542;13.440;2022-11-15T09:20:43;41.27;;;28.83;;
2053;SDS011;1032;52.542;13.440;2022-11-15T09:23:28;42.33;;;32.83;;
2053;SDS011;1032;52.542;13.440;2022-11-15T09:26:14;38.50;;;31.00;;
2053;SDS011;1032;52.542;13.440;2022-11-15T09:28:59;34.13;;;28.40;;
2053;SDS011;1032;52.542;13.440;2022-11-15T09:31:46;33.53;;;25.73;;
2053;SDS011;1032;52.542;13.440;2022-11-15T09:34:32;32.33;;;27.07;;
2053;SDS011;1032;52.542;13.440;2022-11-15T09:37:17;36.10;;;27.77;;
2053;SDS011;1032;52.542;13.440;2022-11-15T09:40:03;36.33;;;25.97;;
2053;SDS011;1032;52.542;13.440;2022-11-15T09:42:52;34.13;;;27.70;;
2053;SDS011;1032;52.542;13.440;2022-11-15T09:45:49;33.40;;;25.30;;
2053;SDS011;1032;52.542;13.440;2022-11-15T09:48:49;41.87;;;28.53;;
2053;SDS011;1032;52.542;13.440;2022-11-15T09:51:38;37.93;;;27.83;;
2053;SDS011;1032;52.542;13.440;2022-11-15T09:54:13;37.57;;;28.63;;
2053;SDS011;1032;52.542;13.440;2022-11-15T09:56:49;35.33;;;29.60;;
2053;SDS011;1032;52.542;13.440;2022-11-15T09:59:21;34.90;;;27.73;;
2053;SDS011;1032;52.542;13.440;2022-11-15T10:01:59;38.20;;;27.70;;
2053;SDS011;1032;52.542;13.440;2022-11-15T10:04:30;36.23;;;28.87;;
2053;SDS011;1032;52.542;13.440;2022-11-15T10:06:58;36.13;;;26.10;;
2053;SDS011;1032;52.542;13.440;2022-11-15T10:09:29;42.73;;;27.00;;
2053;SDS011;1032;52.542;13.440;2022-11-15T10:12:02;33.57;;;25.83;;
2053;SDS011;1032;52.542;13.440;2022-11-15T10:14:29;33.00;;;27.00;;
2053;SDS011;1032;52.542;13.440;2022-11-15T10:17:23;38.70;;;26.93;;
2053;SDS011;1032;52.542;13.440;2022-11-15T10:20:23;33.90;;;25.33;;
2053;SDS011;1032;52.542;13.440;2022-11-15T10:22:52;40.00;;;27.50;;
2053;SDS011;1032;52.542;13.440;2022-11-15T10:25:22;32.50;;;26.30;;
2053;SDS011;1032;52.542;13.440;2022-11-15T10:27:53;33.20;;;26.87;;
2053;SDS011;1032;52.542;13.440;2022-11-15T10:30:22;32.37;;;25.30;;
2053;SDS011;1032;52.542;13.440;2022-11-15T10:32:49;30.80;;;23.13;;
2053;SDS011;1032;52.542;13.440;2022-11-15T10:35:20;33.33;;;24.27;;
2053;SDS011;1032;52.542;13.440;2022-11-15T10:37:52;31.27;;;23.70;;
2053;SDS011;1032;52.542;13.440;2022-11-15T10:40:31;25.73;;;21.87;;
2053;SDS011;1032;52.542;13.440;2022-11-15T10:43:04;28.00;;;22.57;;
2053;SDS011;1032;52.542;13.440;2022-11-15T10:45:38;29.03;;;23.20;;
2053;SDS011;1032;52.542;13.440;2022-11-15T10:48:19;31.20;;;23.83;;
2053;SDS011;1032;52.542;13.440;2022-11-15T10:50:51;28.30;;;22.80;;
2053;SDS011;1032;52.542;13.440;2022-11-15T10:53:23;27.07;;;22.33;;
2053;SDS011;1032;52.542;13.440;2022-11-15T10:55:57;27.63;;;21.90;;
2053;SDS011;1032;52.542;13.440;2022-11-15T10:58:30;50.73;;;40.20;;
2053;SDS011;1032;52.542;13.440;2022-11-15T11:01:08;43.97;;;36.27;;
2053;SDS011;1032;52.542;13.440;2022-11-15T11:03:37;30.03;;;25.43;;
2053;SDS011;1032;52.542;13.440;2022-11-15T11:06:08;26.47;;;22.27;;
2053;SDS011;1032;52.542;13.440;2022-11-15T11:08:36;30.20;;;23.97;;
2053;SDS011;1032;52.542;13.440;2022-11-15T11:11:04;29.53;;;21.10;;
2053;SDS011;1032;52.542;13.440;2022-11-15T11:13:32;26.60;;;19.40;;
2053;SDS011;1032;52.542;13.440;2022-11-15T11:16:08;25.03;;;20.47;;
2053;SDS011;1032;52.542;13.440;2022-11-15T11:18:44;25.07;;;20.80;;
2053;SDS011;1032;52.542;13.440;2022-11-15T11:21:21;26.10;;;22.03;;
2053;SDS011;1032;52.542;13.440;2022-11-15T11:23:53;28.40;;;21.10;;
2053;SDS011;1032;52.542;13.440;2022-11-15T11:26:29;28.10;;;21.03;;
2053;SDS011;1032;52.542;13.440;2022-11-15T11:29:08;26.60;;;21.20;;
2053;SDS011;1032;52.542;13.440;2022-11-15T11:31:48;29.73;;;21.43;;
2053;SDS011;1032;52.542;13.440;2022-11-15T11:34:27;22.70;;;20.00;;
2053;SDS011;1032;52.542;13.440;2022-11-15T11:37:04;38.23;;;20.23;;
2053;SDS011;1032;52.542;13.440;2022-11-15T11:39:40;25.70;;;18.63;;
2053;SDS011;1032;52.542;13.440;2022-11-15T11:42:14;26.53;;;20.90;;
2053;SDS011;1032;52.542;13.440;2022-11-15T11:44:48;32.20;;;22.33;;
2053;SDS011;1032;52.542;13.440;2022-11-15T11:47:27;22.80;;;19.50;;
2053;SDS011;1032;52.542;13.440;2022-11-15T11:49:59;23.47;;;19.10;;
2053;SDS011;1032;52.542;13.440;2022-11-15T11:52:31;24.00;;;19.70;;
2053;SDS011;1032;52.542;13.440;2022-11-15T11:55:02;22.77;;;20.33;;
2053;SDS011;1032;52.542;13.440;2022-11-15T11:57:38;25.67;;;19.10;;
2053;SDS011;1032;52.542;13.440;2022-11-15T12:00:14;25.53;;;21.27;;
2053;SDS011;1032;52.542;13.440;2022-11-15T12:02:45;26.27;;;20.00;;
2053;SDS011;1032;52.542;13.440;2022-11-15T12:05:18;26.67;;;19.87;;
2053;SDS011;1032;52.542;13.440;2022-11-15T12:07:54;29.60;;;21.30;;
2053;SDS011;1032;52.542;13.440;2022-11-15T12:10:28;26.13;;;20.00;;
2053;SDS011;1032;52.542;13.440;2022-11-15T12:12:58;25.47;;;20.37;;
2053;SDS011;1032;52.542;13.440;2022-11-15T12:15:31;23.77;;;20.03;;
2053;SDS011;1032;52.542;13.440;2022-11-15T12:18:01;26.37;;;20.67;;
2053;SDS011;1032;52.542;13.440;2022-11-15T12:20:30;23.00;;;20.50;;
2053;SDS011;1032;52.542;13.440;2022-11-15T12:23:03;27.63;;;21.40;;
2053;SDS011;1032;52.542;13.440;2022-11-15T12:25:35;26.63;;;19.50;;
2053;SDS011;1032;52.542;13.440;2022-11-15T12:28:11;28.00;;;21.77;;
2053;SDS011;1032;52.542;13.440;2022-11-15T12:30:43;26.40;;;19.67;;
2053;SDS011;1032;52.542;13.440;2022-11-15T12:36:00;23.13;;;19.67;;
2053;SDS011;1032;52.542;13.440;2022-11-15T12:41:23;28.03;;;20.97;;
2053;SDS011;1032;52.542;13.440;2022-11-15T12:43:52;26.47;;;21.00;;
2053;SDS011;1032;52.542;13.440;2022-11-15T12:46:21;25.87;;;20.50;;
2053;SDS011;1032;52.542;13.440;2022-11-15T12:49:10;32.73;;;19.57;;
2053;SDS011;1032;52.542;13.440;2022-11-15T12:52:04;32.07;;;20.97;;
2053;SDS011;1032;52.542;13.440;2022-11-15T12:57:33;24.00;;;19.47;;
2053;SDS011;1032;52.542;13.440;2022-11-15T13:03:18;24.70;;;19.17;;
2053;SDS011;1032;52.542;13.440;2022-11-15T13:05:55;25.80;;;19.57;;
2053;SDS011;1032;52.542;13.440;2022-11-15T13:08:37;27.53;;;20.37;;
2053;SDS011;1032;52.542;13.440;2022-11-15T13:17:26;24.10;;;20.00;;
2053;SDS011;1032;52.542;13.440;2022-11-15T13:19:58;28.23;;;20.50;;
2053;SDS011;1032;52.542;13.440;2022-11-15T13:22:28;23.20;;;17.87;;
2053;SDS011;1032;52.542;13.440;2022-11-15T13:25:18;24.17;;;18.30;;
2053;SDS011;1032;52.542;13.440;2022-11-15T13:28:02;20.83;;;18.37;;
2053;SDS011;1032;52.542;13.440;2022-11-15T13:30:36;22.30;;;17.53;;
2053;SDS011;1032;52.542;13.440;2022-11-15T13:33:07;19.60;;;17.00;;
2053;SDS011;1032;52.542;13.440;2022-11-15T13:35:38;24.20;;;17.80;;
2053;SDS011;1032;52.542;13.440;2022-11-15T13:38:17;27.90;;;18.80;;
2053;SDS011;1032;52.542;13.440;2022-11-15T13:40:50;19.83;;;17.63;;
2053;SDS011;1032;52.542;13.440;2022-11-15T13:43:23;27.47;;;19.20;;
2053;SDS011;1032;52.542;13.440;2022-11-15T13:46:03;23.73;;;17.10;;
2053;SDS011;1032;52.542;13.440;2022-11-15T13:48:36;22.13;;;18.03;;
2053;SDS011;1032;52.542;13.440;2022-11-15T13:51:04;24.00;;;18.97;;
2053;SDS011;1032;52.542;13.440;2022-11-15T13:53:35;21.40;;;17.40;;
2053;SDS011;1032;52.542;13.440;2022-11-15T13:56:06;166.63;;;126.97;;
2053;SDS011;1032;52.542;13.440;2022-11-15T13:58:33;37.70;;;30.60;;
2053;SDS011;1032;52.542;13.440;2022-11-15T14:01:03;21.33;;;16.80;;
2053;SDS011;1032;52.542;13.440;2022-11-15T14:03:31;22.23;;;16.40;;
2053;SDS011;1032;52.542;13.440;2022-11-15T14:06:02;24.90;;;17.80;;
2053;SDS011;1032;52.542;13.440;2022-11-15T14:08:32;21.00;;;16.87;;
2053;SDS011;1032;52.542;13.440;2022-11-15T14:14:04;19.97;;;17.70;;
2053;SDS011;1032;52.542;13.440;2022-11-15T14:16:40;27.40;;;16.53;;
2053;SDS011;1032;52.542;13.440;2022-11-15T14:19:09;21.53;;;17.70;;
2053;SDS011;1032;52.542;13.440;2022-11-15T14:21:37;23.73;;;17.57;;
2053;SDS011;1032;52.542;13.440;2022-11-15T14:24:29;19.37;;;16.60;;
2053;SDS011;1032;52.542;13.440;2022-11-15T14:26:57;23.77;;;18.13;;
2053;SDS011;1032;52.542;13.440;2022-11-15T14:29:49;23.43;;;17.23;;
2053;SDS011;1032;52.542;13.440;2022-11-15T14:32:18;22.53;;;19.00;;
2053;SDS011;1032;52.542;13.440;2022-11-15T14:34:46;19.80;;;17.30;;
2053;SDS011;1032;52.542;13.440;2022-11-15T14:37:16;23.83;;;19.70;;
2053;SDS011;1032;52.542;13.440;2022-11-15T14:39:48;25.53;;;18.63;;
2053;SDS011;1032;52.542;13.440;2022-11-15T14:42:15;22.10;;;17.40;;
2053;SDS011;1032;52.542;13.440;2022-11-15T14:44:42;21.80;;;18.43;;
2053;SDS011;1032;52.542;13.440;2022-11-15T14:47:09;22.20;;;18.73;;
2053;SDS011;1032;52.542;13.440;2022-11-15T14:49:35;21.33;;;18.50;;
2053;SDS011;1032;52.542;13.440;2022-11-15T14:52:02;59.83;;;53.47;;
2053;SDS011;1032;52.542;13.440;2022-11-15T14:54:33;105.47;;;80.37;;
2053;SDS011;1032;52.542;13.440;2022-11-15T14:57:01;31.27;;;25.63;;
2053;SDS011;1032;52.542;13.440;2022-11-15T14:59:28;28.73;;;21.47;;
2053;SDS011;1032;52.542;13.440;2022-11-15T15:01:54;22.03;;;18.80;;
2053;SDS011;1032;52.542;13.440;2022-11-15T15:04:21;24.47;;;19.30;;
2053;SDS011;1032;52.542;13.440;2022-11-15T15:06:47;25.60;;;21.23;;
2053;SDS011;1032;52.542;13.440;2022-11-15T15:09:14;22.17;;;19.87;;
2053;SDS011;1032;52.542;13.440;2022-11-15T15:11:40;21.73;;;17.97;;
2053;SDS011;1032;52.542;13.440;2022-11-15T15:14:08;24.40;;;19.33;;
2053;SDS011;1032;52.542;13.440;2022-11-15T15:16:35;25.37;;;19.57;;
2053;SDS011;1032;52.542;13.440;2022-11-15T15:19:02;27.80;;;21.60;;
2053;SDS011;1032;52.542;13.440;2022-11-15T15:21:29;26.40;;;21.07;;
2053;SDS011;1032;52.542;13.440;2022-11-15T15:23:56;27.63;;;21.10;;
2053;SDS011;1032;52.542;13.440;2022-11-15T15:26:23;26.13;;;20.17;;
2053;SDS011;1032;52.542;13.440;2022-11-15T15:28:49;26.13;;;19.60;;
2053;SDS011;1032;52.542;13.440;2022-11-15T15:31:18;26.63;;;21.10;;
2053;SDS011;1032;52.542;13.440;2022-11-15T15:33:45;28.03;;;21.60;;
2053;SDS011;1032;52.542;13.440;2022-11-15T15:36:12;27.13;;;20.70;;
2053;SDS011;1032;52.542;13.440;2022-11-15T15:38:40;30.53;;;22.73;;
2053;SDS011;1032;52.542;13.440;2022-11-15T15:41:08;24.03;;;20.67;;
2053;SDS011;1032;52.542;13.440;2022-11-15T15:43:36;27.60;;;23.70;;
2053;SDS011;1032;52.542;13.440;2022-11-15T15:46:03;30.43;;;21.30;;
2053;SDS011;1032;52.542;13.440;2022-11-15T15:48:32;29.10;;;23.80;;
2053;SDS011;1032;52.542;13.440;2022-11-15T15:51:02;29.20;;;23.40;;
2053;SDS011;1032;52.542;13.440;2022-11-15T15:53:29;32.60;;;22.90;;
2053;SDS011;1032;52.542;13.440;2022-11-15T15:55:56;28.30;;;23.70;;
2053;SDS011;1032;52.542;13.440;2022-11-15T15:58:23;31.97;;;22.40;;
2053;SDS011;1032;52.542;13.440;2022-11-15T16:00:50;26.53;;;21.87;;
2053;SDS011;1032;52.542;13.440;2022-11-15T16:03:17;25.30;;;20.90;;
2053;SDS011;1032;52.542;13.440;2022-11-15T16:05:44;30.57;;;24.00;;
2053;SDS011;1032;52.542;13.440;2022-11-15T16:08:14;31.90;;;23.20;;
2053;SDS011;1032;52.542;13.440;2022-11-15T16:10:43;26.40;;;21.53;;
2053;SDS011;1032;52.542;13.440;2022-11-15T16:13:10;28.60;;;23.60;;
2053;SDS011;1032;52.542;13.440;2022-11-15T16:15:37;25.10;;;21.27;;
2053;SDS011;1032;52.542;13.440;2022-11-15T16:18:04;30.00;;;22.57;;
2053;SDS011;1032;52.542;13.440;2022-11-15T16:20:34;26.77;;;23.30;;
2053;SDS011;1032;52.542;13.440;2022-11-15T16:23:04;27.97;;;21.33;;